createdAt,value
2023-05-11T00:02:47.382Z,13.60
2023-05-11T00:05:52.137Z,13.60
2023-05-11T00:08:55.406Z,13.50
2023-05-11T00:11:58.770Z,13.50
2023-05-11T00:15:01.698Z,13.50
2023-05-11T00:18:04.939Z,13.50
2023-05-11T00:21:09.705Z,13.40
2023-05-11T00:24:12.832Z,13.30
2023-05-11T00:27:16.037Z,13.30
2023-05-11T00:30:19.773Z,13.30
2023-05-11T00:33:23.126Z,13.30
2023-05-11T00:36:27.817Z,13.30
2023-05-11T00:39:31.059Z,13.30
2023-05-11T00:42:34.353Z,13.20
2023-05-11T00:45:37.477Z,13.20
2023-05-11T00:48:40.779Z,13.10
2023-05-11T00:51:45.599Z,13.10
2023-05-11T00:54:49.565Z,13.10
2023-05-11T00:57:52.724Z,13.10
2023-05-11T01:00:55.853Z,13.10
2023-05-11T01:03:59.000Z,13.10
2023-05-11T01:07:09.626Z,13.00
2023-05-11T01:10:20.576Z,13.00
2023-05-11T01:13:32.025Z,13.00
2023-05-11T01:16:41.547Z,13.00
2023-05-11T01:19:49.689Z,12.90
2023-05-11T01:23:16.278Z,12.90
2023-05-11T01:26:43.603Z,12.90
2023-05-11T01:29:57.242Z,12.90
2023-05-11T01:33:08.499Z,12.80
2023-05-11T01:36:13.789Z,12.80
2023-05-11T01:39:20.774Z,12.80
2023-05-11T01:42:29.497Z,12.90
2023-05-11T01:45:35.316Z,12.90
2023-05-11T01:48:43.756Z,12.90
2023-05-11T01:51:51.513Z,12.90
2023-05-11T01:54:57.268Z,12.90
2023-05-11T01:58:02.051Z,12.90
2023-05-11T02:01:06.705Z,12.80
2023-05-11T02:04:13.351Z,12.80
2023-05-11T02:07:20.242Z,12.80
2023-05-11T02:10:27.084Z,12.70
2023-05-11T02:13:31.377Z,12.70
2023-05-11T02:16:35.152Z,12.60
2023-05-11T02:19:40.712Z,12.60
2023-05-11T02:22:44.584Z,12.50
2023-05-11T02:25:49.692Z,12.50
2023-05-11T02:28:52.901Z,12.50
2023-05-11T02:32:02.229Z,12.50
2023-05-11T02:35:12.477Z,12.50
2023-05-11T02:38:18.426Z,12.50
2023-05-11T02:41:28.009Z,12.50
2023-05-11T02:44:36.147Z,12.50
2023-05-11T02:47:43.566Z,12.50
2023-05-11T02:50:49.060Z,12.50
2023-05-11T02:53:56.248Z,12.50
2023-05-11T02:57:00.123Z,12.50
2023-05-11T03:00:04.313Z,12.50
2023-05-11T03:03:07.869Z,12.40
2023-05-11T03:06:14.248Z,12.30
2023-05-11T03:09:19.532Z,12.40
2023-05-11T03:12:23.001Z,12.30
2023-05-11T03:15:26.523Z,12.30
2023-05-11T03:18:31.006Z,12.30
2023-05-11T03:21:37.341Z,12.30
2023-05-11T03:24:41.307Z,12.30
2023-05-11T03:27:46.454Z,12.30
2023-05-11T03:30:51.219Z,12.30
2023-05-11T03:33:54.593Z,12.30
2023-05-11T03:37:00.539Z,12.20
2023-05-11T03:40:05.341Z,12.20
2023-05-11T03:43:11.962Z,12.20
2023-05-11T03:46:21.448Z,12.20
2023-05-11T03:49:26.237Z,12.20
2023-05-11T03:52:31.750Z,12.20
2023-05-11T03:55:35.045Z,12.20
2023-05-11T03:58:40.499Z,12.30
2023-05-11T04:01:44.727Z,12.20
2023-05-11T04:04:49.154Z,12.20
2023-05-11T04:07:53.578Z,12.20
2023-05-11T04:10:56.817Z,12.20
2023-05-11T04:13:59.798Z,12.20
2023-05-11T04:17:02.919Z,12.30
2023-05-11T04:20:06.838Z,12.20
2023-05-11T04:23:12.245Z,12.20
2023-05-11T04:26:15.391Z,12.30
2023-05-11T04:29:18.493Z,12.30
2023-05-11T04:32:21.651Z,12.30
2023-05-11T04:35:25.076Z,12.30
2023-05-11T04:38:29.720Z,12.30
2023-05-11T04:41:33.085Z,12.40
2023-05-11T04:44:36.186Z,12.50
2023-05-11T04:47:39.189Z,12.50
2023-05-11T04:50:42.813Z,12.60
2023-05-11T04:53:47.585Z,12.70
2023-05-11T04:56:53.696Z,12.80
2023-05-11T04:59:56.994Z,13.00
2023-05-11T05:03:00.358Z,13.10
2023-05-11T05:06:04.039Z,13.30
2023-05-11T05:09:08.442Z,13.50
2023-05-11T05:12:11.534Z,13.60
2023-05-11T05:15:14.956Z,13.90
2023-05-11T05:18:18.246Z,14.10
2023-05-11T05:21:21.341Z,14.30
2023-05-11T05:24:25.842Z,14.50
2023-05-11T05:27:29.240Z,14.70
2023-05-11T05:30:37.077Z,14.90
2023-05-11T05:33:40.149Z,15.10
2023-05-11T05:36:43.801Z,15.40
2023-05-11T05:39:48.581Z,15.50
2023-05-11T05:42:51.762Z,15.70
2023-05-11T05:45:54.953Z,15.80
2023-05-11T05:49:02.651Z,16.00
2023-05-11T05:52:06.332Z,16.10
2023-05-11T05:55:11.150Z,16.40
2023-05-11T05:58:14.107Z,16.70
2023-05-11T06:01:17.192Z,17.00
2023-05-11T06:04:20.546Z,17.20
2023-05-11T06:07:23.619Z,17.20
2023-05-11T06:10:28.464Z,17.50
2023-05-11T06:13:31.593Z,17.60
2023-05-11T06:16:34.923Z,17.80
2023-05-11T06:19:38.605Z,18.10
2023-05-11T06:22:41.611Z,18.40
2023-05-11T06:25:45.955Z,18.60
2023-05-11T06:28:48.936Z,18.70
2023-05-11T06:31:52.978Z,18.90
2023-05-11T06:34:56.161Z,19.10
2023-05-11T06:37:59.256Z,19.20
2023-05-11T06:41:03.667Z,19.10
2023-05-11T06:44:07.141Z,19.40
2023-05-11T06:47:10.211Z,19.50
2023-05-11T06:50:13.222Z,19.50
2023-05-11T06:53:17.737Z,19.70
2023-05-11T06:56:22.468Z,19.70
2023-05-11T06:59:25.530Z,19.50
2023-05-11T07:02:28.725Z,19.50
2023-05-11T07:05:32.345Z,19.50
2023-05-11T07:08:35.282Z,19.70
2023-05-11T07:11:40.968Z,19.70
2023-05-11T07:14:43.986Z,19.70
2023-05-11T07:17:48.347Z,19.90
2023-05-11T07:20:51.394Z,20.00
2023-05-11T07:23:54.427Z,20.00
2023-05-11T07:26:58.757Z,20.10
2023-05-11T07:30:02.989Z,20.20
2023-05-11T07:33:06.690Z,20.00
2023-05-11T07:36:10.234Z,19.90
2023-05-11T07:39:13.280Z,19.90
2023-05-11T07:42:17.641Z,19.80
2023-05-11T07:45:21.145Z,19.70
2023-05-11T07:48:24.099Z,19.80
2023-05-11T07:51:27.302Z,19.90
2023-05-11T07:54:30.661Z,19.90
2023-05-11T07:57:35.062Z,19.90
2023-05-11T08:00:38.056Z,19.90
2023-05-11T08:03:41.215Z,20.00
2023-05-11T08:06:44.808Z,19.80
2023-05-11T08:09:47.840Z,19.70
2023-05-11T08:12:52.478Z,19.70
2023-05-11T08:15:55.554Z,19.70
2023-05-11T08:18:58.590Z,19.90
2023-05-11T08:22:02.074Z,19.70
2023-05-11T08:25:05.629Z,19.80
2023-05-11T08:28:09.970Z,19.90
2023-05-11T08:31:14.294Z,19.90
2023-05-11T08:34:20.208Z,20.00
2023-05-11T08:37:24.466Z,20.20
2023-05-11T08:40:28.752Z,20.30
2023-05-11T08:43:36.120Z,20.40
2023-05-11T08:46:42.876Z,20.50
2023-05-11T08:49:46.457Z,20.60
2023-05-11T08:52:49.486Z,20.80
2023-05-11T08:55:53.128Z,21.00
2023-05-11T08:58:58.562Z,21.10
2023-05-11T09:02:03.285Z,21.30
2023-05-11T09:05:07.649Z,21.30
2023-05-11T09:08:13.992Z,21.30
2023-05-11T09:11:17.549Z,21.40
2023-05-11T09:14:26.928Z,21.30
2023-05-11T09:17:30.350Z,21.50
2023-05-11T09:20:35.164Z,21.50
2023-05-11T09:23:38.420Z,21.50
2023-05-11T09:26:41.616Z,21.60
2023-05-11T09:29:51.828Z,21.70
2023-05-11T09:32:58.848Z,21.90
2023-05-11T09:36:02.908Z,21.90
2023-05-11T09:39:06.266Z,22.10
2023-05-11T09:42:16.526Z,22.20
2023-05-11T09:45:40.841Z,22.20
2023-05-11T09:48:43.820Z,22.40
2023-05-11T09:51:47.186Z,22.40
2023-05-11T09:54:52.092Z,22.20
2023-05-11T09:57:56.502Z,22.00
2023-05-11T10:01:01.101Z,22.10
2023-05-11T10:04:17.913Z,22.20
2023-05-11T10:07:26.853Z,22.30
2023-05-11T10:10:31.540Z,22.30
2023-05-11T10:13:40.126Z,22.40
2023-05-11T10:16:45.479Z,22.50
2023-05-11T10:19:50.006Z,22.60
2023-05-11T10:22:55.182Z,22.80
2023-05-11T10:25:59.292Z,22.80
2023-05-11T10:29:02.942Z,22.60
2023-05-11T10:32:08.663Z,22.30
2023-05-11T10:35:12.423Z,22.20
2023-05-11T10:38:17.079Z,22.10
2023-05-11T10:41:34.750Z,22.10
2023-05-11T10:45:03.047Z,22.30
2023-05-11T10:48:43.098Z,22.50
2023-05-11T10:52:19.300Z,22.70
2023-05-11T10:55:33.344Z,23.00
2023-05-11T10:58:50.564Z,22.90
2023-05-11T11:01:58.444Z,22.80
2023-05-11T11:05:05.812Z,22.60
2023-05-11T11:08:09.730Z,22.50
2023-05-11T11:11:31.002Z,22.30
2023-05-11T11:14:54.865Z,22.50
2023-05-11T11:18:20.774Z,22.90
2023-05-11T11:21:45.406Z,23.20
2023-05-11T11:24:48.722Z,23.00
2023-05-11T11:27:59.397Z,23.10
2023-05-11T11:31:25.489Z,23.20
2023-05-11T11:34:39.494Z,23.00
2023-05-11T11:38:08.038Z,22.90
2023-05-11T11:41:11.124Z,22.60
2023-05-11T11:44:22.687Z,22.50
2023-05-11T11:47:26.830Z,22.50
2023-05-11T11:50:30.138Z,22.20
2023-05-11T11:54:08.081Z,22.10
2023-05-11T11:57:49.223Z,22.00
2023-05-11T12:00:53.833Z,21.90
2023-05-11T12:04:39.286Z,21.70
2023-05-11T12:07:44.100Z,21.70
2023-05-11T12:10:58.542Z,21.60
2023-05-11T12:14:02.295Z,21.70
2023-05-11T12:17:13.543Z,21.90
2023-05-11T12:20:18.777Z,21.90
2023-05-11T12:23:22.389Z,22.10
2023-05-11T12:26:29.640Z,22.20
2023-05-11T12:29:33.161Z,22.50
2023-05-11T12:32:36.485Z,22.70
2023-05-11T12:35:40.432Z,22.80
2023-05-11T12:38:47.551Z,23.00
2023-05-11T12:41:53.920Z,23.40
2023-05-11T12:44:57.537Z,23.80
2023-05-11T12:48:01.697Z,23.80
2023-05-11T12:51:04.892Z,23.80
2023-05-11T12:54:08.079Z,23.90
2023-05-11T12:57:25.494Z,24.00
2023-05-11T13:00:28.787Z,24.20
2023-05-11T13:03:34.040Z,24.20
2023-05-11T13:06:39.396Z,24.20
2023-05-11T13:09:42.748Z,24.20
2023-05-11T13:12:54.590Z,24.20
2023-05-11T13:15:57.590Z,24.20
2023-05-11T13:19:01.367Z,24.60
2023-05-11T13:22:05.020Z,24.60
2023-05-11T13:25:09.510Z,24.40
2023-05-11T13:28:15.453Z,24.40
2023-05-11T13:31:19.379Z,24.20
2023-05-11T13:34:23.983Z,24.00
2023-05-11T13:37:27.121Z,23.80
2023-05-11T13:40:30.268Z,23.90
2023-05-11T13:43:34.666Z,24.00
2023-05-11T13:46:37.793Z,23.90
2023-05-11T13:49:42.208Z,24.00
2023-05-11T13:52:45.962Z,24.00
2023-05-11T13:55:48.987Z,24.00
2023-05-11T13:58:53.447Z,23.90
2023-05-11T14:01:56.576Z,23.70
2023-05-11T14:04:59.629Z,23.40
2023-05-11T14:08:02.698Z,23.10
2023-05-11T14:11:06.023Z,23.10
2023-05-11T14:14:10.520Z,23.10
2023-05-11T14:17:14.495Z,23.10
2023-05-11T14:20:17.861Z,22.90
2023-05-11T14:23:20.919Z,23.00
2023-05-11T14:26:24.003Z,23.20
2023-05-11T14:29:28.433Z,23.40
2023-05-11T14:32:31.670Z,23.40
2023-05-11T14:35:35.721Z,23.40
2023-05-11T14:38:40.448Z,23.30
2023-05-11T14:41:43.656Z,23.30
2023-05-11T14:44:48.077Z,23.00
2023-05-11T14:47:51.453Z,23.10
2023-05-11T14:50:54.853Z,23.00
2023-05-11T14:53:57.925Z,23.20
2023-05-11T14:57:01.240Z,23.20
2023-05-11T15:00:07.361Z,23.00
2023-05-11T15:03:11.034Z,22.90
2023-05-11T15:06:21.060Z,22.70
2023-05-11T15:09:24.181Z,22.50
2023-05-11T15:12:27.155Z,22.50
2023-05-11T15:15:31.917Z,22.50
2023-05-11T15:18:35.056Z,22.50
2023-05-11T15:21:38.269Z,22.50
2023-05-11T15:24:41.311Z,22.60
2023-05-11T15:27:44.417Z,22.50
2023-05-11T15:30:52.093Z,22.50
2023-05-11T15:33:55.182Z,22.50
2023-05-11T15:36:58.735Z,22.50
2023-05-11T15:40:01.833Z,22.50
2023-05-11T15:43:05.092Z,22.50
2023-05-11T15:46:09.505Z,22.60
2023-05-11T15:49:12.818Z,22.70
2023-05-11T15:52:15.865Z,22.70
2023-05-11T15:55:18.994Z,22.70
2023-05-11T15:58:22.279Z,22.70
2023-05-11T16:01:26.681Z,22.70
2023-05-11T16:04:29.653Z,22.60
2023-05-11T16:07:32.725Z,22.50
2023-05-11T16:10:36.409Z,22.30
2023-05-11T16:13:39.568Z,22.20
2023-05-11T16:16:44.503Z,22.10
2023-05-11T16:19:48.864Z,21.90
2023-05-11T16:22:52.215Z,21.70
2023-05-11T16:25:56.383Z,21.70
2023-05-11T16:28:59.365Z,21.60
2023-05-11T16:32:05.259Z,21.50
2023-05-11T16:35:08.845Z,21.40
2023-05-11T16:38:17.615Z,21.50
2023-05-11T16:41:20.596Z,21.50
2023-05-11T16:44:23.822Z,21.50
2023-05-11T16:47:28.364Z,21.70
2023-05-11T16:50:31.339Z,21.70
2023-05-11T16:53:34.607Z,21.80
2023-05-11T16:56:38.067Z,21.80
2023-05-11T16:59:41.228Z,21.60
2023-05-11T17:02:46.278Z,21.50
2023-05-11T17:05:49.374Z,21.40
2023-05-11T17:08:53.026Z,21.40
2023-05-11T17:11:56.716Z,21.20
2023-05-11T17:15:00.706Z,21.10
2023-05-11T17:18:05.368Z,21.10
2023-05-11T17:21:10.356Z,21.00
2023-05-11T17:24:13.479Z,20.80
2023-05-11T17:27:16.461Z,20.80
2023-05-11T17:30:19.688Z,20.80
2023-05-11T17:33:25.406Z,20.80
2023-05-11T17:36:29.908Z,20.70
2023-05-11T17:39:33.240Z,20.60
2023-05-11T17:42:36.421Z,20.50
2023-05-11T17:45:39.499Z,20.50
2023-05-11T17:48:43.996Z,20.40
2023-05-11T17:51:47.908Z,20.30
2023-05-11T17:54:51.120Z,20.20
2023-05-11T17:57:54.234Z,20.10
2023-05-11T18:00:57.339Z,20.10
2023-05-11T18:04:02.561Z,20.00
2023-05-11T18:07:07.445Z,20.00
2023-05-11T18:10:11.180Z,19.90
2023-05-11T18:13:15.267Z,19.90
2023-05-11T18:16:20.353Z,19.80
2023-05-11T18:19:24.758Z,19.70
2023-05-11T18:22:29.869Z,19.70
2023-05-11T18:25:36.104Z,19.60
2023-05-11T18:28:39.410Z,19.50
2023-05-11T18:31:42.567Z,19.50
2023-05-11T18:34:47.047Z,19.40
2023-05-11T18:37:50.664Z,19.40
2023-05-11T18:40:53.872Z,19.30
2023-05-11T18:43:57.196Z,19.20
2023-05-11T18:47:00.543Z,19.30
2023-05-11T18:50:05.470Z,19.20
2023-05-11T18:53:11.628Z,19.10
2023-05-11T18:56:14.839Z,19.10
2023-05-11T18:59:18.108Z,19.00
2023-05-11T19:02:21.281Z,19.00
2023-05-11T19:05:25.793Z,19.00
2023-05-11T19:08:28.825Z,19.00
2023-05-11T19:11:31.920Z,19.00
2023-05-11T19:14:35.601Z,18.90
2023-05-11T19:17:38.872Z,18.90
2023-05-11T19:20:43.522Z,18.90
2023-05-11T19:23:48.272Z,18.90
2023-05-11T19:27:05.340Z,18.80
2023-05-11T19:30:10.844Z,18.70
2023-05-11T19:33:19.783Z,18.60
2023-05-11T19:36:24.591Z,18.70
2023-05-11T19:39:27.879Z,18.60
2023-05-11T19:42:39.538Z,18.50
2023-05-11T19:45:43.570Z,18.40
2023-05-11T19:48:47.411Z,18.40
2023-05-11T19:51:52.280Z,18.30
2023-05-11T19:54:55.300Z,18.30
2023-05-11T19:57:58.338Z,18.20
2023-05-11T20:01:01.325Z,18.10
2023-05-11T20:04:04.624Z,18.00
2023-05-11T20:07:10.433Z,18.00
2023-05-11T20:10:13.903Z,18.00
2023-05-11T20:13:16.917Z,17.80
2023-05-11T20:16:19.985Z,17.80
2023-05-11T20:19:26.096Z,17.80
2023-05-11T20:22:32.473Z,17.80
2023-05-11T20:25:43.477Z,17.80
2023-05-11T20:28:46.442Z,17.80
2023-05-11T20:31:49.729Z,17.90
2023-05-11T20:34:52.932Z,17.80
2023-05-11T20:37:57.550Z,17.80
2023-05-11T20:41:00.588Z,17.80
2023-05-11T20:44:03.925Z,17.60
2023-05-11T20:47:09.526Z,17.60
2023-05-11T20:50:13.278Z,17.50
2023-05-11T20:53:17.667Z,17.60
2023-05-11T20:56:21.483Z,17.50
2023-05-11T21:02:30.574Z,17.50
2023-05-11T21:05:33.748Z,17.50
2023-05-11T21:08:38.206Z,17.50
2023-05-11T21:11:41.346Z,17.50
2023-05-11T21:14:44.353Z,17.40
2023-05-11T21:17:47.565Z,17.30
2023-05-11T21:20:50.562Z,17.30
2023-05-11T21:23:54.940Z,17.20
2023-05-11T21:26:58.181Z,17.20
2023-05-11T21:30:01.346Z,17.20
2023-05-11T21:33:04.563Z,17.10
2023-05-11T21:36:09.202Z,17.20
2023-05-11T21:39:14.064Z,17.20
2023-05-11T21:42:17.309Z,17.10
2023-05-11T21:45:20.754Z,17.10
2023-05-11T21:48:23.843Z,17.00
2023-05-11T21:51:26.914Z,17.00
2023-05-11T21:54:31.410Z,17.00
2023-05-11T21:57:34.682Z,17.00
2023-05-11T22:00:38.050Z,17.00
2023-05-11T22:03:41.210Z,17.00
2023-05-11T22:06:44.360Z,17.00
2023-05-11T22:09:49.134Z,17.00
2023-05-11T22:12:52.273Z,17.00
2023-05-11T22:15:58.860Z,17.00
2023-05-11T22:19:01.958Z,16.90
2023-05-11T22:22:05.182Z,16.90
2023-05-11T22:25:11.002Z,16.90
2023-05-11T22:28:14.038Z,16.90
2023-05-11T22:31:17.076Z,16.90
2023-05-11T22:34:21.563Z,16.90
2023-05-11T22:37:24.873Z,16.90
2023-05-11T22:40:29.463Z,17.00
2023-05-11T22:43:32.543Z,17.00
2023-05-11T22:46:35.603Z,16.90
2023-05-11T22:49:38.726Z,16.90
2023-05-11T22:52:42.159Z,16.90
2023-05-11T22:55:46.549Z,16.80
2023-05-11T22:58:49.550Z,16.80
2023-05-11T23:01:52.691Z,16.70
2023-05-11T23:04:56.104Z,16.70
2023-05-11T23:07:59.905Z,16.60
2023-05-11T23:11:04.621Z,16.60
2023-05-11T23:14:07.831Z,16.50
2023-05-11T23:17:11.276Z,16.50
2023-05-11T23:20:14.808Z,16.40
2023-05-11T23:23:18.155Z,16.40
2023-05-11T23:26:22.646Z,16.40
2023-05-11T23:29:28.033Z,16.20
2023-05-11T23:32:32.331Z,16.20
2023-05-11T23:35:35.643Z,16.10
2023-05-11T23:38:38.691Z,16.10
2023-05-11T23:41:43.512Z,16.00
2023-05-11T23:44:46.913Z,16.00
2023-05-11T23:47:51.823Z,15.90
2023-05-11T23:50:54.936Z,15.80
2023-05-11T23:53:57.936Z,15.80
2023-05-11T23:57:02.896Z,15.80
